sensor_id;sensor_type;location;lat;lon;timestamp;P1;durP1;ratioP1;P2;durP2;ratioP2
5351;SDS011;2698;51.454;6.736;2023-08-06T00:00:20;8.47;;;4.70;;
5351;SDS011;2698;51.454;6.736;2023-08-06T00:02:49;11.87;;;4.83;;
5351;SDS011;2698;51.454;6.736;2023-08-06T00:05:16;11.63;;;4.63;;
5351;SDS011;2698;51.454;6.736;2023-08-06T00:07:46;6.30;;;4.53;;
5351;SDS011;2698;51.454;6.736;2023-08-06T00:10:13;9.97;;;4.97;;
5351;SDS011;2698;51.454;6.736;2023-08-06T00:12:40;5.40;;;4.63;;
5351;SDS011;2698;51.454;6.736;2023-08-06T00:15:07;8.53;;;5.20;;
5351;SDS011;2698;51.454;6.736;2023-08-06T00:17:35;5.50;;;4.30;;
5351;SDS011;2698;51.454;6.736;2023-08-06T00:20:03;9.10;;;4.57;;
5351;SDS011;2698;51.454;6.736;2023-08-06T00:22:31;4.13;;;3.73;;
5351;SDS011;2698;51.454;6.736;2023-08-06T00:24:58;6.23;;;4.70;;
5351;SDS011;2698;51.454;6.736;2023-08-06T00:27:25;7.90;;;4.17;;
5351;SDS011;2698;51.454;6.736;2023-08-06T00:29:52;5.27;;;4.80;;
5351;SDS011;2698;51.454;6.736;2023-08-06T00:32:19;13.27;;;5.00;;
5351;SDS011;2698;51.454;6.736;2023-08-06T00:34:46;5.50;;;4.43;;
5351;SDS011;2698;51.454;6.736;2023-08-06T00:37:16;5.63;;;4.60;;
5351;SDS011;2698;51.454;6.736;2023-08-06T00:39:43;6.07;;;4.13;;
5351;SDS011;2698;51.454;6.736;2023-08-06T00:42:10;5.47;;;5.00;;
5351;SDS011;2698;51.454;6.736;2023-08-06T00:44:37;7.37;;;5.27;;
5351;SDS011;2698;51.454;6.736;2023-08-06T00:47:05;6.80;;;4.73;;
5351;SDS011;2698;51.454;6.736;2023-08-06T00:49:33;9.07;;;3.93;;
5351;SDS011;2698;51.454;6.736;2023-08-06T00:52:00;5.13;;;4.40;;
5351;SDS011;2698;51.454;6.736;2023-08-06T00:54:28;7.97;;;4.77;;
5351;SDS011;2698;51.454;6.736;2023-08-06T00:56:55;3.70;;;3.33;;
5351;SDS011;2698;51.454;6.736;2023-08-06T00:59:23;8.43;;;4.37;;
5351;SDS011;2698;51.454;6.736;2023-08-06T01:01:50;8.97;;;4.30;;
5351;SDS011;2698;51.454;6.736;2023-08-06T01:04:18;5.80;;;4.10;;
5351;SDS011;2698;51.454;6.736;2023-08-06T01:06:47;4.37;;;3.97;;
5351;SDS011;2698;51.454;6.736;2023-08-06T01:09:19;12.03;;;4.83;;
5351;SDS011;2698;51.454;6.736;2023-08-06T01:11:52;5.17;;;4.70;;
5351;SDS011;2698;51.454;6.736;2023-08-06T01:14:22;4.90;;;3.60;;
5351;SDS011;2698;51.454;6.736;2023-08-06T01:16:50;5.23;;;3.80;;
5351;SDS011;2698;51.454;6.736;2023-08-06T01:19:18;5.97;;;4.23;;
5351;SDS011;2698;51.454;6.736;2023-08-06T01:21:46;5.07;;;3.80;;
5351;SDS011;2698;51.454;6.736;2023-08-06T01:24:14;7.20;;;4.40;;
5351;SDS011;2698;51.454;6.736;2023-08-06T01:26:42;5.80;;;4.27;;
5351;SDS011;2698;51.454;6.736;2023-08-06T01:29:11;4.50;;;3.77;;
5351;SDS011;2698;51.454;6.736;2023-08-06T01:31:41;9.30;;;4.00;;
5351;SDS011;2698;51.454;6.736;2023-08-06T01:34:11;5.00;;;3.60;;
5351;SDS011;2698;51.454;6.736;2023-08-06T01:36:40;5.33;;;3.30;;
5351;SDS011;2698;51.454;6.736;2023-08-06T01:39:08;5.60;;;4.17;;
5351;SDS011;2698;51.454;6.736;2023-08-06T01:41:36;9.23;;;4.07;;
5351;SDS011;2698;51.454;6.736;2023-08-06T01:44:03;4.17;;;3.77;;
5351;SDS011;2698;51.454;6.736;2023-08-06T01:46:30;4.70;;;4.13;;
5351;SDS011;2698;51.454;6.736;2023-08-06T01:48:57;6.33;;;3.80;;
5351;SDS011;2698;51.454;6.736;2023-08-06T01:51:24;4.83;;;3.70;;
5351;SDS011;2698;51.454;6.736;2023-08-06T01:53:51;3.90;;;3.60;;
5351;SDS011;2698;51.454;6.736;2023-08-06T01:56:20;4.67;;;3.90;;
5351;SDS011;2698;51.454;6.736;2023-08-06T01:58:47;5.67;;;3.93;;
5351;SDS011;2698;51.454;6.736;2023-08-06T02:01:14;5.90;;;3.50;;
5351;SDS011;2698;51.454;6.736;2023-08-06T02:03:41;8.10;;;4.37;;
5351;SDS011;2698;51.454;6.736;2023-08-06T02:06:08;4.47;;;3.37;;
5351;SDS011;2698;51.454;6.736;2023-08-06T02:08:35;6.50;;;3.90;;
5351;SDS011;2698;51.454;6.736;2023-08-06T02:11:03;6.10;;;3.90;;
5351;SDS011;2698;51.454;6.736;2023-08-06T02:13:32;4.33;;;4.00;;
5351;SDS011;2698;51.454;6.736;2023-08-06T02:15:59;7.53;;;3.17;;
5351;SDS011;2698;51.454;6.736;2023-08-06T02:18:26;6.30;;;3.57;;
5351;SDS011;2698;51.454;6.736;2023-08-06T02:20:56;4.40;;;4.10;;
5351;SDS011;2698;51.454;6.736;2023-08-06T02:23:23;4.47;;;4.07;;
5351;SDS011;2698;51.454;6.736;2023-08-06T02:25:56;6.57;;;4.47;;
5351;SDS011;2698;51.454;6.736;2023-08-06T02:28:23;8.03;;;4.07;;
5351;SDS011;2698;51.454;6.736;2023-08-06T02:30:51;10.20;;;4.00;;
5351;SDS011;2698;51.454;6.736;2023-08-06T02:33:18;4.20;;;3.90;;
5351;SDS011;2698;51.454;6.736;2023-08-06T02:35:45;6.40;;;4.13;;
5351;SDS011;2698;51.454;6.736;2023-08-06T02:38:13;9.03;;;4.60;;
5351;SDS011;2698;51.454;6.736;2023-08-06T02:40:42;9.53;;;4.47;;
5351;SDS011;2698;51.454;6.736;2023-08-06T02:43:10;6.00;;;4.70;;
5351;SDS011;2698;51.454;6.736;2023-08-06T02:45:38;6.33;;;3.93;;
5351;SDS011;2698;51.454;6.736;2023-08-06T02:48:07;4.57;;;3.80;;
5351;SDS011;2698;51.454;6.736;2023-08-06T02:50:37;7.87;;;3.53;;
5351;SDS011;2698;51.454;6.736;2023-08-06T02:53:05;5.47;;;4.30;;
5351;SDS011;2698;51.454;6.736;2023-08-06T02:55:32;10.70;;;4.20;;
5351;SDS011;2698;51.454;6.736;2023-08-06T02:57:59;8.33;;;4.10;;
5351;SDS011;2698;51.454;6.736;2023-08-06T03:00:26;11.97;;;4.90;;
5351;SDS011;2698;51.454;6.736;2023-08-06T03:02:53;6.33;;;4.23;;
5351;SDS011;2698;51.454;6.736;2023-08-06T03:05:22;6.90;;;4.20;;
5351;SDS011;2698;51.454;6.736;2023-08-06T03:07:49;6.53;;;5.17;;
5351;SDS011;2698;51.454;6.736;2023-08-06T03:10:16;5.07;;;4.57;;
5351;SDS011;2698;51.454;6.736;2023-08-06T03:12:43;7.73;;;4.53;;
5351;SDS011;2698;51.454;6.736;2023-08-06T03:15:10;8.80;;;3.83;;
5351;SDS011;2698;51.454;6.736;2023-08-06T03:17:37;6.07;;;4.23;;
5351;SDS011;2698;51.454;6.736;2023-08-06T03:20:05;11.67;;;5.40;;
5351;SDS011;2698;51.454;6.736;2023-08-06T03:22:34;5.70;;;3.97;;
5351;SDS011;2698;51.454;6.736;2023-08-06T03:25:01;14.00;;;4.90;;
5351;SDS011;2698;51.454;6.736;2023-08-06T03:27:28;4.93;;;4.23;;
5351;SDS011;2698;51.454;6.736;2023-08-06T03:29:55;9.87;;;4.40;;
5351;SDS011;2698;51.454;6.736;2023-08-06T03:32:22;14.03;;;5.03;;
5351;SDS011;2698;51.454;6.736;2023-08-06T03:34:49;5.03;;;4.10;;
5351;SDS011;2698;51.454;6.736;2023-08-06T03:37:16;6.47;;;4.63;;
5351;SDS011;2698;51.454;6.736;2023-08-06T03:39:45;6.10;;;3.93;;
5351;SDS011;2698;51.454;6.736;2023-08-06T03:42:12;6.73;;;4.97;;
5351;SDS011;2698;51.454;6.736;2023-08-06T03:44:39;8.40;;;4.20;;
5351;SDS011;2698;51.454;6.736;2023-08-06T03:47:06;5.40;;;3.87;;
5351;SDS011;2698;51.454;6.736;2023-08-06T03:49:33;10.10;;;3.90;;
5351;SDS011;2698;51.454;6.736;2023-08-06T03:52:00;5.13;;;4.13;;
5351;SDS011;2698;51.454;6.736;2023-08-06T03:54:27;10.20;;;4.43;;
5351;SDS011;2698;51.454;6.736;2023-08-06T03:56:56;7.10;;;3.90;;
5351;SDS011;2698;51.454;6.736;2023-08-06T03:59:23;11.73;;;4.10;;
5351;SDS011;2698;51.454;6.736;2023-08-06T04:01:50;6.80;;;4.17;;
5351;SDS011;2698;51.454;6.736;2023-08-06T04:04:17;5.13;;;3.93;;
5351;SDS011;2698;51.454;6.736;2023-08-06T04:06:44;5.30;;;3.87;;
5351;SDS011;2698;51.454;6.736;2023-08-06T04:09:11;5.53;;;4.93;;
5351;SDS011;2698;51.454;6.736;2023-08-06T04:11:39;10.23;;;3.70;;
5351;SDS011;2698;51.454;6.736;2023-08-06T04:14:07;7.63;;;4.17;;
5351;SDS011;2698;51.454;6.736;2023-08-06T04:16:34;5.80;;;4.50;;
5351;SDS011;2698;51.454;6.736;2023-08-06T04:19:02;5.67;;;4.07;;
5351;SDS011;2698;51.454;6.736;2023-08-06T04:21:29;6.10;;;3.90;;
5351;SDS011;2698;51.454;6.736;2023-08-06T04:23:56;11.00;;;4.23;;
5351;SDS011;2698;51.454;6.736;2023-08-06T04:26:23;7.60;;;3.60;;
5351;SDS011;2698;51.454;6.736;2023-08-06T04:28:50;8.30;;;4.33;;
5351;SDS011;2698;51.454;6.736;2023-08-06T04:31:18;4.90;;;4.00;;
5351;SDS011;2698;51.454;6.736;2023-08-06T04:33:45;5.13;;;3.33;;
5351;SDS011;2698;51.454;6.736;2023-08-06T04:36:12;6.67;;;3.90;;
5351;SDS011;2698;51.454;6.736;2023-08-06T04:38:39;4.47;;;3.13;;
5351;SDS011;2698;51.454;6.736;2023-08-06T04:41:10;7.47;;;3.70;;
5351;SDS011;2698;51.454;6.736;2023-08-06T04:43:37;6.60;;;4.23;;
5351;SDS011;2698;51.454;6.736;2023-08-06T04:46:05;10.47;;;3.80;;
5351;SDS011;2698;51.454;6.736;2023-08-06T04:48:33;4.13;;;3.40;;
5351;SDS011;2698;51.454;6.736;2023-08-06T04:51:00;3.83;;;3.53;;
5351;SDS011;2698;51.454;6.736;2023-08-06T04:53:27;3.90;;;3.37;;
5351;SDS011;2698;51.454;6.736;2023-08-06T04:55:53;8.33;;;4.07;;
5351;SDS011;2698;51.454;6.736;2023-08-06T04:58:21;8.67;;;3.40;;
5351;SDS011;2698;51.454;6.736;2023-08-06T05:00:48;7.23;;;3.83;;
5351;SDS011;2698;51.454;6.736;2023-08-06T05:03:15;7.63;;;4.30;;
5351;SDS011;2698;51.454;6.736;2023-08-06T05:05:43;3.77;;;3.47;;
5351;SDS011;2698;51.454;6.736;2023-08-06T05:08:13;11.07;;;4.10;;
5351;SDS011;2698;51.454;6.736;2023-08-06T05:10:42;10.50;;;3.63;;
5351;SDS011;2698;51.454;6.736;2023-08-06T05:13:09;7.70;;;4.20;;
5351;SDS011;2698;51.454;6.736;2023-08-06T05:15:36;3.83;;;3.53;;
5351;SDS011;2698;51.454;6.736;2023-08-06T05:18:04;4.87;;;3.77;;
5351;SDS011;2698;51.454;6.736;2023-08-06T05:20:33;3.43;;;2.97;;
5351;SDS011;2698;51.454;6.736;2023-08-06T05:23:03;5.43;;;4.20;;
5351;SDS011;2698;51.454;6.736;2023-08-06T05:25:31;6.33;;;3.73;;
5351;SDS011;2698;51.454;6.736;2023-08-06T05:27:58;15.70;;;3.60;;
5351;SDS011;2698;51.454;6.736;2023-08-06T05:30:26;6.07;;;3.70;;
5351;SDS011;2698;51.454;6.736;2023-08-06T05:32:53;3.47;;;3.13;;
5351;SDS011;2698;51.454;6.736;2023-08-06T05:35:21;5.70;;;3.67;;
5351;SDS011;2698;51.454;6.736;2023-08-06T05:37:49;3.70;;;3.33;;
5351;SDS011;2698;51.454;6.736;2023-08-06T05:40:18;7.33;;;3.60;;
5351;SDS011;2698;51.454;6.736;2023-08-06T05:42:45;4.80;;;3.53;;
5351;SDS011;2698;51.454;6.736;2023-08-06T05:45:12;3.07;;;2.87;;
5351;SDS011;2698;51.454;6.736;2023-08-06T05:47:39;8.03;;;3.50;;
5351;SDS011;2698;51.454;6.736;2023-08-06T05:50:06;9.47;;;3.60;;
5351;SDS011;2698;51.454;6.736;2023-08-06T05:52:34;6.07;;;3.30;;
5351;SDS011;2698;51.454;6.736;2023-08-06T05:55:02;6.03;;;3.27;;
5351;SDS011;2698;51.454;6.736;2023-08-06T05:57:30;9.03;;;3.10;;
5351;SDS011;2698;51.454;6.736;2023-08-06T05:59:57;7.63;;;3.07;;
5351;SDS011;2698;51.454;6.736;2023-08-06T06:02:24;11.53;;;3.67;;
5351;SDS011;2698;51.454;6.736;2023-08-06T06:04:51;5.87;;;3.50;;
5351;SDS011;2698;51.454;6.736;2023-08-06T06:07:18;3.53;;;3.20;;
5351;SDS011;2698;51.454;6.736;2023-08-06T06:09:45;6.63;;;3.63;;
5351;SDS011;2698;51.454;6.736;2023-08-06T06:12:12;3.83;;;2.73;;
5351;SDS011;2698;51.454;6.736;2023-08-06T06:14:41;10.13;;;3.00;;
5351;SDS011;2698;51.454;6.736;2023-08-06T06:17:08;5.00;;;3.90;;
5351;SDS011;2698;51.454;6.736;2023-08-06T06:19:35;4.83;;;3.77;;
5351;SDS011;2698;51.454;6.736;2023-08-06T06:22:02;3.70;;;2.90;;
5351;SDS011;2698;51.454;6.736;2023-08-06T06:24:29;10.93;;;3.50;;
5351;SDS011;2698;51.454;6.736;2023-08-06T06:26:56;3.73;;;3.40;;
5351;SDS011;2698;51.454;6.736;2023-08-06T06:29:24;5.10;;;3.70;;
5351;SDS011;2698;51.454;6.736;2023-08-06T06:31:52;8.73;;;3.40;;
5351;SDS011;2698;51.454;6.736;2023-08-06T06:34:19;8.00;;;3.37;;
5351;SDS011;2698;51.454;6.736;2023-08-06T06:36:47;4.10;;;3.00;;
5351;SDS011;2698;51.454;6.736;2023-08-06T06:39:15;3.63;;;2.80;;
5351;SDS011;2698;51.454;6.736;2023-08-06T06:41:42;3.60;;;3.30;;
5351;SDS011;2698;51.454;6.736;2023-08-06T06:44:09;6.10;;;3.27;;
5351;SDS011;2698;51.454;6.736;2023-08-06T06:46:36;8.97;;;3.70;;
5351;SDS011;2698;51.454;6.736;2023-08-06T06:49:05;4.23;;;3.33;;
5351;SDS011;2698;51.454;6.736;2023-08-06T06:51:32;5.10;;;3.70;;
5351;SDS011;2698;51.454;6.736;2023-08-06T06:53:59;5.77;;;3.80;;
5351;SDS011;2698;51.454;6.736;2023-08-06T06:56:26;3.37;;;3.07;;
5351;SDS011;2698;51.454;6.736;2023-08-06T06:58:53;5.20;;;3.50;;
5351;SDS011;2698;51.454;6.736;2023-08-06T07:01:20;8.40;;;3.57;;
5351;SDS011;2698;51.454;6.736;2023-08-06T07:03:47;3.47;;;3.17;;
5351;SDS011;2698;51.454;6.736;2023-08-06T07:06:16;4.30;;;2.70;;
5351;SDS011;2698;51.454;6.736;2023-08-06T07:08:43;5.50;;;2.73;;
5351;SDS011;2698;51.454;6.736;2023-08-06T07:11:10;2.93;;;2.73;;
5351;SDS011;2698;51.454;6.736;2023-08-06T07:13:37;8.83;;;3.17;;
5351;SDS011;2698;51.454;6.736;2023-08-06T07:16:04;3.30;;;2.73;;
5351;SDS011;2698;51.454;6.736;2023-08-06T07:18:31;3.13;;;2.87;;
5351;SDS011;2698;51.454;6.736;2023-08-06T07:20:58;3.87;;;3.10;;
5351;SDS011;2698;51.454;6.736;2023-08-06T07:23:27;7.10;;;3.20;;
5351;SDS011;2698;51.454;6.736;2023-08-06T07:25:54;3.63;;;2.67;;
5351;SDS011;2698;51.454;6.736;2023-08-06T07:28:21;4.37;;;2.83;;
5351;SDS011;2698;51.454;6.736;2023-08-06T07:30:48;5.70;;;3.43;;
5351;SDS011;2698;51.454;6.736;2023-08-06T07:33:16;7.60;;;3.90;;
5351;SDS011;2698;51.454;6.736;2023-08-06T07:35:43;6.70;;;3.50;;
5351;SDS011;2698;51.454;6.736;2023-08-06T07:38:10;12.90;;;4.50;;
5351;SDS011;2698;51.454;6.736;2023-08-06T07:40:38;10.27;;;5.07;;
5351;SDS011;2698;51.454;6.736;2023-08-06T07:43:05;7.47;;;4.63;;
5351;SDS011;2698;51.454;6.736;2023-08-06T07:45:33;8.63;;;6.20;;
5351;SDS011;2698;51.454;6.736;2023-08-06T07:48:00;9.90;;;6.37;;
5351;SDS011;2698;51.454;6.736;2023-08-06T07:50:28;10.50;;;5.73;;
5351;SDS011;2698;51.454;6.736;2023-08-06T07:52:55;5.97;;;5.00;;
5351;SDS011;2698;51.454;6.736;2023-08-06T07:55:22;6.63;;;5.87;;
5351;SDS011;2698;51.454;6.736;2023-08-06T07:57:50;9.87;;;6.23;;
5351;SDS011;2698;51.454;6.736;2023-08-06T08:00:17;8.03;;;5.00;;
5351;SDS011;2698;51.454;6.736;2023-08-06T08:02:45;6.33;;;4.37;;
5351;SDS011;2698;51.454;6.736;2023-08-06T08:05:12;6.37;;;4.40;;
5351;SDS011;2698;51.454;6.736;2023-08-06T08:07:39;5.03;;;4.57;;
5351;SDS011;2698;51.454;6.736;2023-08-06T08:10:07;4.90;;;3.90;;
5351;SDS011;2698;51.454;6.736;2023-08-06T08:12:34;7.80;;;3.90;;
5351;SDS011;2698;51.454;6.736;2023-08-06T08:15:03;5.90;;;4.20;;
5351;SDS011;2698;51.454;6.736;2023-08-06T08:17:30;5.80;;;4.40;;
5351;SDS011;2698;51.454;6.736;2023-08-06T08:19:57;7.47;;;4.63;;
5351;SDS011;2698;51.454;6.736;2023-08-06T08:22:24;4.73;;;3.40;;
5351;SDS011;2698;51.454;6.736;2023-08-06T08:24:51;4.47;;;3.83;;
5351;SDS011;2698;51.454;6.736;2023-08-06T08:27:18;5.40;;;4.13;;
5351;SDS011;2698;51.454;6.736;2023-08-06T08:29:45;6.97;;;5.17;;
5351;SDS011;2698;51.454;6.736;2023-08-06T08:32:14;10.40;;;3.83;;
5351;SDS011;2698;51.454;6.736;2023-08-06T08:34:41;4.03;;;3.73;;
5351;SDS011;2698;51.454;6.736;2023-08-06T08:37:09;5.13;;;4.63;;
5351;SDS011;2698;51.454;6.736;2023-08-06T08:39:36;9.70;;;4.50;;
5351;SDS011;2698;51.454;6.736;2023-08-06T08:42:03;4.23;;;3.60;;
5351;SDS011;2698;51.454;6.736;2023-08-06T08:44:32;6.47;;;3.87;;
5351;SDS011;2698;51.454;6.736;2023-08-06T08:47:01;10.50;;;4.70;;
5351;SDS011;2698;51.454;6.736;2023-08-06T08:49:30;5.13;;;3.77;;
5351;SDS011;2698;51.454;6.736;2023-08-06T08:51:57;4.13;;;3.73;;
5351;SDS011;2698;51.454;6.736;2023-08-06T08:54:26;7.60;;;3.70;;
5351;SDS011;2698;51.454;6.736;2023-08-06T08:56:54;3.70;;;3.40;;
5351;SDS011;2698;51.454;6.736;2023-08-06T08:59:21;4.97;;;2.50;;
5351;SDS011;2698;51.454;6.736;2023-08-06T09:01:49;2.40;;;2.20;;
5351;SDS011;2698;51.454;6.736;2023-08-06T09:04:16;5.90;;;2.73;;
5351;SDS011;2698;51.454;6.736;2023-08-06T09:06:46;5.50;;;2.53;;
5351;SDS011;2698;51.454;6.736;2023-08-06T09:09:15;2.50;;;2.30;;
5351;SDS011;2698;51.454;6.736;2023-08-06T09:11:43;7.47;;;2.87;;
5351;SDS011;2698;51.454;6.736;2023-08-06T09:14:11;7.23;;;3.57;;
5351;SDS011;2698;51.454;6.736;2023-08-06T09:16:38;7.13;;;2.90;;
5351;SDS011;2698;51.454;6.736;2023-08-06T09:19:08;9.20;;;3.00;;
5351;SDS011;2698;51.454;6.736;2023-08-06T09:21:38;5.80;;;3.00;;
5351;SDS011;2698;51.454;6.736;2023-08-06T09:24:10;8.00;;;3.27;;
5351;SDS011;2698;51.454;6.736;2023-08-06T09:26:37;15.50;;;4.27;;
5351;SDS011;2698;51.454;6.736;2023-08-06T09:29:05;6.20;;;4.13;;
5351;SDS011;2698;51.454;6.736;2023-08-06T09:31:33;5.67;;;3.37;;
5351;SDS011;2698;51.454;6.736;2023-08-06T09:34:00;5.27;;;4.30;;
5351;SDS011;2698;51.454;6.736;2023-08-06T09:36:27;5.97;;;3.33;;
5351;SDS011;2698;51.454;6.736;2023-08-06T09:38:54;8.80;;;3.83;;
5351;SDS011;2698;51.454;6.736;2023-08-06T09:41:27;2.80;;;2.63;;
5351;SDS011;2698;51.454;6.736;2023-08-06T09:43:54;5.23;;;3.30;;
5351;SDS011;2698;51.454;6.736;2023-08-06T09:46:21;9.90;;;4.00;;
5351;SDS011;2698;51.454;6.736;2023-08-06T09:48:48;6.67;;;4.80;;
5351;SDS011;2698;51.454;6.736;2023-08-06T09:51:17;7.87;;;6.23;;
5351;SDS011;2698;51.454;6.736;2023-08-06T09:53:44;11.87;;;6.33;;
5351;SDS011;2698;51.454;6.736;2023-08-06T09:56:11;9.47;;;6.77;;
5351;SDS011;2698;51.454;6.736;2023-08-06T09:58:41;10.93;;;6.33;;
5351;SDS011;2698;51.454;6.736;2023-08-06T10:01:08;6.10;;;5.60;;
5351;SDS011;2698;51.454;6.736;2023-08-06T10:03:38;9.10;;;5.83;;
5351;SDS011;2698;51.454;6.736;2023-08-06T10:06:06;5.60;;;5.10;;
5351;SDS011;2698;51.454;6.736;2023-08-06T10:08:34;6.13;;;5.57;;
5351;SDS011;2698;51.454;6.736;2023-08-06T10:11:01;6.90;;;5.10;;
5351;SDS011;2698;51.454;6.736;2023-08-06T10:13:30;10.07;;;5.83;;
5351;SDS011;2698;51.454;6.736;2023-08-06T10:15:59;6.00;;;5.20;;
5351;SDS011;2698;51.454;6.736;2023-08-06T10:18:26;6.50;;;5.93;;
5351;SDS011;2698;51.454;6.736;2023-08-06T10:20:53;9.30;;;5.67;;
5351;SDS011;2698;51.454;6.736;2023-08-06T10:23:21;6.83;;;6.20;;
5351;SDS011;2698;51.454;6.736;2023-08-06T10:25:59;7.03;;;6.33;;
5351;SDS011;2698;51.454;6.736;2023-08-06T10:28:33;7.93;;;7.10;;
5351;SDS011;2698;51.454;6.736;2023-08-06T10:31:03;11.27;;;7.00;;
5351;SDS011;2698;51.454;6.736;2023-08-06T10:33:39;7.00;;;6.40;;
5351;SDS011;2698;51.454;6.736;2023-08-06T10:36:08;7.50;;;6.80;;
5351;SDS011;2698;51.454;6.736;2023-08-06T10:38:43;8.13;;;7.37;;
5351;SDS011;2698;51.454;6.736;2023-08-06T10:41:14;7.67;;;7.07;;
5351;SDS011;2698;51.454;6.736;2023-08-06T10:43:42;8.23;;;7.30;;
5351;SDS011;2698;51.454;6.736;2023-08-06T10:46:12;7.70;;;6.57;;
5351;SDS011;2698;51.454;6.736;2023-08-06T10:48:47;7.30;;;4.80;;
5351;SDS011;2698;51.454;6.736;2023-08-06T10:51:14;5.10;;;3.57;;
5351;SDS011;2698;51.454;6.736;2023-08-06T10:53:42;8.70;;;2.80;;
5351;SDS011;2698;51.454;6.736;2023-08-06T10:56:12;1.73;;;1.67;;
5351;SDS011;2698;51.454;6.736;2023-08-06T10:58:40;1.83;;;1.73;;
5351;SDS011;2698;51.454;6.736;2023-08-06T11:01:07;3.23;;;1.73;;
5351;SDS011;2698;51.454;6.736;2023-08-06T11:03:36;4.43;;;2.30;;
5351;SDS011;2698;51.454;6.736;2023-08-06T11:06:03;2.00;;;1.80;;
5351;SDS011;2698;51.454;6.736;2023-08-06T11:08:32;2.07;;;1.90;;
5351;SDS011;2698;51.454;6.736;2023-08-06T11:11:07;1.60;;;1.50;;
5351;SDS011;2698;51.454;6.736;2023-08-06T11:13:36;5.20;;;1.50;;
5351;SDS011;2698;51.454;6.736;2023-08-06T11:16:03;8.33;;;2.27;;
5351;SDS011;2698;51.454;6.736;2023-08-06T11:18:31;3.63;;;1.90;;
5351;SDS011;2698;51.454;6.736;2023-08-06T11:20:59;2.30;;;1.60;;
5351;SDS011;2698;51.454;6.736;2023-08-06T11:23:27;1.70;;;1.60;;
5351;SDS011;2698;51.454;6.736;2023-08-06T11:25:54;6.43;;;2.17;;
5351;SDS011;2698;51.454;6.736;2023-08-06T11:28:22;5.90;;;1.90;;
5351;SDS011;2698;51.454;6.736;2023-08-06T11:30:49;1.73;;;1.63;;
5351;SDS011;2698;51.454;6.736;2023-08-06T11:33:19;2.00;;;1.90;;
5351;SDS011;2698;51.454;6.736;2023-08-06T11:35:47;2.03;;;1.93;;
5351;SDS011;2698;51.454;6.736;2023-08-06T11:38:15;2.10;;;2.00;;
5351;SDS011;2698;51.454;6.736;2023-08-06T11:40:43;2.27;;;2.17;;
5351;SDS011;2698;51.454;6.736;2023-08-06T11:43:11;2.60;;;2.40;;
5351;SDS011;2698;51.454;6.736;2023-08-06T11:45:38;2.20;;;2.00;;
5351;SDS011;2698;51.454;6.736;2023-08-06T11:48:05;2.23;;;2.13;;
5351;SDS011;2698;51.454;6.736;2023-08-06T11:50:35;1.80;;;1.70;;
5351;SDS011;2698;51.454;6.736;2023-08-06T11:53:03;4.70;;;1.30;;
5351;SDS011;2698;51.454;6.736;2023-08-06T11:55:31;2.23;;;2.03;;
5351;SDS011;2698;51.454;6.736;2023-08-06T11:57:59;1.47;;;1.37;;
5351;SDS011;2698;51.454;6.736;2023-08-06T12:00:29;1.80;;;1.70;;
5351;SDS011;2698;51.454;6.736;2023-08-06T12:02:56;1.70;;;1.60;;
5351;SDS011;2698;51.454;6.736;2023-08-06T12:05:23;1.10;;;1.10;;
5351;SDS011;2698;51.454;6.736;2023-08-06T12:07:51;2.40;;;1.33;;
5351;SDS011;2698;51.454;6.736;2023-08-06T12:10:18;2.40;;;2.00;;
5351;SDS011;2698;51.454;6.736;2023-08-06T12:12:47;1.50;;;1.50;;
5351;SDS011;2698;51.454;6.736;2023-08-06T12:15:15;1.43;;;1.33;;
5351;SDS011;2698;51.454;6.736;2023-08-06T12:17:42;1.50;;;1.50;;
5351;SDS011;2698;51.454;6.736;2023-08-06T12:20:09;1.63;;;1.53;;
5351;SDS011;2698;51.454;6.736;2023-08-06T12:22:36;1.10;;;1.10;;
5351;SDS011;2698;51.454;6.736;2023-08-06T12:25:05;1.43;;;1.43;;
5351;SDS011;2698;51.454;6.736;2023-08-06T12:27:33;1.93;;;1.83;;
5351;SDS011;2698;51.454;6.736;2023-08-06T12:30:02;7.30;;;2.07;;
5351;SDS011;2698;51.454;6.736;2023-08-06T12:32:29;1.90;;;1.80;;
5351;SDS011;2698;51.454;6.736;2023-08-06T12:34:56;2.20;;;2.10;;
5351;SDS011;2698;51.454;6.736;2023-08-06T12:37:24;2.20;;;2.07;;
5351;SDS011;2698;51.454;6.736;2023-08-06T12:39:51;2.20;;;2.10;;
5351;SDS011;2698;51.454;6.736;2023-08-06T12:42:18;1.80;;;1.70;;
5351;SDS011;2698;51.454;6.736;2023-08-06T12:44:45;2.20;;;2.10;;
5351;SDS011;2698;51.454;6.736;2023-08-06T12:47:13;3.37;;;2.30;;
5351;SDS011;2698;51.454;6.736;2023-08-06T12:49:40;2.87;;;2.20;;
5351;SDS011;2698;51.454;6.736;2023-08-06T12:52:08;3.40;;;2.67;;
5351;SDS011;2698;51.454;6.736;2023-08-06T12:54:37;2.80;;;2.40;;
5351;SDS011;2698;51.454;6.736;2023-08-06T12:57:04;2.83;;;2.63;;
5351;SDS011;2698;51.454;6.736;2023-08-06T12:59:32;3.90;;;3.33;;
5351;SDS011;2698;51.454;6.736;2023-08-06T13:02:01;3.03;;;2.83;;
5351;SDS011;2698;51.454;6.736;2023-08-06T13:04:29;2.30;;;2.20;;
5351;SDS011;2698;51.454;6.736;2023-08-06T13:06:59;3.03;;;2.83;;
5351;SDS011;2698;51.454;6.736;2023-08-06T13:09:26;4.13;;;3.67;;
5351;SDS011;2698;51.454;6.736;2023-08-06T13:11:53;4.03;;;3.63;;
5351;SDS011;2698;51.454;6.736;2023-08-06T13:14:20;3.47;;;3.20;;
5351;SDS011;2698;51.454;6.736;2023-08-06T13:16:47;3.70;;;3.50;;
5351;SDS011;2698;51.454;6.736;2023-08-06T13:19:14;4.10;;;3.80;;
5351;SDS011;2698;51.454;6.736;2023-08-06T13:22:01;3.73;;;3.40;;
5351;SDS011;2698;51.454;6.736;2023-08-06T13:24:30;4.07;;;3.67;;
5351;SDS011;2698;51.454;6.736;2023-08-06T13:26:57;4.43;;;4.00;;
5351;SDS011;2698;51.454;6.736;2023-08-06T13:29:24;6.53;;;4.17;;
5351;SDS011;2698;51.454;6.736;2023-08-06T13:31:52;5.07;;;3.43;;
5351;SDS011;2698;51.454;6.736;2023-08-06T13:34:19;3.77;;;3.40;;
5351;SDS011;2698;51.454;6.736;2023-08-06T13:36:46;4.57;;;3.30;;
5351;SDS011;2698;51.454;6.736;2023-08-06T13:39:16;5.50;;;3.40;;
5351;SDS011;2698;51.454;6.736;2023-08-06T13:41:43;2.97;;;2.77;;
5351;SDS011;2698;51.454;6.736;2023-08-06T13:44:10;4.00;;;2.80;;
5351;SDS011;2698;51.454;6.736;2023-08-06T13:46:39;2.90;;;2.70;;
5351;SDS011;2698;51.454;6.736;2023-08-06T13:49:06;3.67;;;3.07;;
5351;SDS011;2698;51.454;6.736;2023-08-06T13:51:33;5.87;;;3.33;;
5351;SDS011;2698;51.454;6.736;2023-08-06T13:54:01;5.87;;;3.03;;
5351;SDS011;2698;51.454;6.736;2023-08-06T13:56:29;4.50;;;3.73;;
5351;SDS011;2698;51.454;6.736;2023-08-06T13:58:56;3.10;;;2.90;;
5351;SDS011;2698;51.454;6.736;2023-08-06T14:01:23;10.33;;;3.90;;
5351;SDS011;2698;51.454;6.736;2023-08-06T14:03:50;3.90;;;3.47;;
5351;SDS011;2698;51.454;6.736;2023-08-06T14:06:18;8.70;;;2.90;;
5351;SDS011;2698;51.454;6.736;2023-08-06T14:08:45;3.77;;;3.30;;
5351;SDS011;2698;51.454;6.736;2023-08-06T14:11:12;3.50;;;3.20;;
5351;SDS011;2698;51.454;6.736;2023-08-06T14:13:41;4.80;;;3.63;;
5351;SDS011;2698;51.454;6.736;2023-08-06T14:16:08;4.30;;;3.47;;
5351;SDS011;2698;51.454;6.736;2023-08-06T14:18:35;5.80;;;4.30;;
5351;SDS011;2698;51.454;6.736;2023-08-06T14:21:03;4.97;;;3.50;;
5351;SDS011;2698;51.454;6.736;2023-08-06T14:23:30;3.33;;;3.07;;
5351;SDS011;2698;51.454;6.736;2023-08-06T14:25:57;7.07;;;5.20;;
5351;SDS011;2698;51.454;6.736;2023-08-06T14:28:24;13.30;;;8.73;;
5351;SDS011;2698;51.454;6.736;2023-08-06T14:30:53;9.30;;;7.37;;
5351;SDS011;2698;51.454;6.736;2023-08-06T14:33:20;15.80;;;9.90;;
5351;SDS011;2698;51.454;6.736;2023-08-06T14:35:48;10.10;;;6.40;;
5351;SDS011;2698;51.454;6.736;2023-08-06T14:38:15;14.20;;;9.57;;
5351;SDS011;2698;51.454;6.736;2023-08-06T14:40:43;8.03;;;6.57;;
5351;SDS011;2698;51.454;6.736;2023-08-06T14:43:10;9.07;;;8.00;;
5351;SDS011;2698;51.454;6.736;2023-08-06T14:45:37;15.53;;;7.40;;
5351;SDS011;2698;51.454;6.736;2023-08-06T14:48:06;7.37;;;6.17;;
5351;SDS011;2698;51.454;6.736;2023-08-06T14:50:33;20.23;;;14.30;;
5351;SDS011;2698;51.454;6.736;2023-08-06T14:53:00;7.30;;;5.03;;
5351;SDS011;2698;51.454;6.736;2023-08-06T14:55:27;3.87;;;3.57;;
5351;SDS011;2698;51.454;6.736;2023-08-06T14:57:55;7.40;;;5.67;;
5351;SDS011;2698;51.454;6.736;2023-08-06T15:00:22;5.03;;;4.40;;
5351;SDS011;2698;51.454;6.736;2023-08-06T15:02:49;5.97;;;4.53;;
5351;SDS011;2698;51.454;6.736;2023-08-06T15:05:17;6.10;;;4.70;;
5351;SDS011;2698;51.454;6.736;2023-08-06T15:07:44;5.07;;;4.67;;
5351;SDS011;2698;51.454;6.736;2023-08-06T15:10:11;7.73;;;5.37;;
5351;SDS011;2698;51.454;6.736;2023-08-06T15:12:38;6.50;;;3.47;;
5351;SDS011;2698;51.454;6.736;2023-08-06T15:15:06;5.97;;;4.43;;
5351;SDS011;2698;51.454;6.736;2023-08-06T15:17:34;2.87;;;2.67;;